createdAt,value
2024-03-09T00:01:50.835Z,30.38
2024-03-09T00:04:17.673Z,29.01
2024-03-09T00:06:44.436Z,30.07
2024-03-09T00:09:11.162Z,30.50
2024-03-09T00:11:38.043Z,30.03
2024-03-09T00:14:04.888Z,30.53
2024-03-09T00:16:33.049Z,30.95
2024-03-09T00:18:59.767Z,30.28
2024-03-09T00:21:26.483Z,30.87
2024-03-09T00:23:53.231Z,29.83
2024-03-09T00:26:19.942Z,30.32
2024-03-09T00:28:46.761Z,30.15
2024-03-09T00:31:13.766Z,31.81
2024-03-09T00:33:42.095Z,34.53
2024-03-09T00:36:10.175Z,35.72
2024-03-09T00:38:38.993Z,31.78
2024-03-09T00:41:05.934Z,29.17
2024-03-09T00:43:32.866Z,28.40
2024-03-09T00:45:59.587Z,28.42
2024-03-09T00:48:26.335Z,28.62
2024-03-09T00:50:54.436Z,28.85
2024-03-09T00:53:21.265Z,30.10
2024-03-09T00:55:47.999Z,29.44
2024-03-09T00:58:14.875Z,30.36
2024-03-09T01:00:41.616Z,30.11
2024-03-09T01:03:08.381Z,31.00
2024-03-09T01:05:35.179Z,30.49
2024-03-09T01:08:03.586Z,30.28
2024-03-09T01:10:30.347Z,30.66
2024-03-09T01:12:57.045Z,29.71
2024-03-09T01:15:23.867Z,30.58
2024-03-09T01:17:50.786Z,31.13
2024-03-09T01:20:17.630Z,30.42
2024-03-09T01:22:44.600Z,30.45
2024-03-09T01:25:13.006Z,30.40
2024-03-09T01:27:39.772Z,30.48
2024-03-09T01:30:07.703Z,30.00
2024-03-09T01:32:34.522Z,29.77
2024-03-09T01:35:01.404Z,29.50
2024-03-09T01:37:28.194Z,30.32
2024-03-09T01:39:55.152Z,29.25
2024-03-09T01:42:23.329Z,29.19
2024-03-09T01:44:50.438Z,29.04
2024-03-09T01:47:17.351Z,28.57
2024-03-09T01:49:44.097Z,28.78
2024-03-09T01:52:10.919Z,28.85
2024-03-09T01:54:40.516Z,28.15
2024-03-09T01:57:08.641Z,28.28
2024-03-09T01:59:36.733Z,28.60
2024-03-09T02:02:03.687Z,27.91
2024-03-09T02:04:30.499Z,27.72
2024-03-09T02:06:57.293Z,27.23
2024-03-09T02:09:23.997Z,28.15
2024-03-09T02:11:50.748Z,27.91
2024-03-09T02:14:17.576Z,28.01
2024-03-09T02:16:45.666Z,29.62
2024-03-09T02:19:12.361Z,29.99
2024-03-09T02:21:39.064Z,29.90
2024-03-09T02:24:07.122Z,30.79
2024-03-09T02:26:35.311Z,31.08
2024-03-09T02:29:02.071Z,30.54
2024-03-09T02:31:28.889Z,30.78
2024-03-09T02:33:55.670Z,30.52
2024-03-09T02:36:25.505Z,30.40
2024-03-09T02:38:52.244Z,31.25
2024-03-09T02:41:19.072Z,30.48
2024-03-09T02:43:47.210Z,30.22
2024-03-09T02:46:14.027Z,29.78
2024-03-09T02:48:42.920Z,29.96
2024-03-09T02:51:09.651Z,28.67
2024-03-09T02:53:36.361Z,28.71
2024-03-09T02:56:03.438Z,28.67
2024-03-09T02:58:30.313Z,28.62
2024-03-09T03:00:58.452Z,28.00
2024-03-09T03:03:25.231Z,27.59
2024-03-09T03:05:51.937Z,28.03
2024-03-09T03:08:18.634Z,27.40
2024-03-09T03:10:45.416Z,27.07
2024-03-09T03:13:12.954Z,27.88
2024-03-09T03:15:39.696Z,28.22
2024-03-09T03:18:08.154Z,27.07
2024-03-09T03:20:35.486Z,27.61
2024-03-09T03:23:04.002Z,27.01
2024-03-09T03:25:31.018Z,27.67
2024-03-09T03:27:57.791Z,27.92
2024-03-09T03:30:24.650Z,27.95
2024-03-09T03:32:51.397Z,28.77
2024-03-09T03:35:19.565Z,28.69
2024-03-09T03:37:46.292Z,29.24
2024-03-09T03:40:13.447Z,27.61
2024-03-09T03:42:40.130Z,27.69
2024-03-09T03:45:07.729Z,27.17
2024-03-09T03:47:34.486Z,27.42
2024-03-09T03:50:01.886Z,26.94
2024-03-09T03:52:30.782Z,27.79
2024-03-09T03:54:58.221Z,27.43
2024-03-09T03:57:25.775Z,27.57
2024-03-09T03:59:53.066Z,28.10
2024-03-09T04:02:20.258Z,28.28
2024-03-09T04:04:47.544Z,28.01
2024-03-09T04:07:15.027Z,29.03
2024-03-09T04:09:43.754Z,29.48
2024-03-09T04:12:11.098Z,29.29
2024-03-09T04:14:38.390Z,28.81
2024-03-09T04:17:05.901Z,29.41
2024-03-09T04:19:36.258Z,29.07
2024-03-09T04:22:03.685Z,28.62
2024-03-09T04:24:31.156Z,29.38
2024-03-09T04:27:00.749Z,27.98
2024-03-09T04:29:30.776Z,28.30
2024-03-09T04:31:58.116Z,28.33
2024-03-09T04:34:25.438Z,27.95
2024-03-09T04:36:52.788Z,28.03
2024-03-09T04:39:23.077Z,28.08
2024-03-09T04:41:50.264Z,27.36
2024-03-09T04:44:25.088Z,27.06
2024-03-09T04:46:56.749Z,27.27
2024-03-09T04:49:23.467Z,26.97
2024-03-09T04:51:50.220Z,27.24
2024-03-09T04:54:17.030Z,26.72
2024-03-09T04:56:43.842Z,26.76
2024-03-09T04:59:10.665Z,28.23
2024-03-09T05:01:38.948Z,28.49
2024-03-09T05:04:05.690Z,28.91
2024-03-09T05:06:32.415Z,28.88
2024-03-09T05:08:59.243Z,29.55
2024-03-09T05:11:26.044Z,29.35
2024-03-09T05:13:52.904Z,29.60
2024-03-09T05:16:19.633Z,29.20
2024-03-09T05:18:47.788Z,29.54
2024-03-09T05:21:14.598Z,29.99
2024-03-09T05:23:41.361Z,29.64
2024-03-09T05:26:08.185Z,29.98
2024-03-09T05:28:34.948Z,29.84
2024-03-09T05:31:01.726Z,29.76
2024-03-09T05:33:28.454Z,28.84
2024-03-09T05:35:56.540Z,29.50
2024-03-09T05:38:23.266Z,29.82
2024-03-09T05:40:50.040Z,30.10
2024-03-09T05:43:16.842Z,30.17
2024-03-09T05:45:43.617Z,30.38
2024-03-09T05:48:10.849Z,29.79
2024-03-09T05:50:37.621Z,30.27
2024-03-09T05:53:06.465Z,30.87
2024-03-09T05:55:33.645Z,30.58
2024-03-09T05:58:00.405Z,31.13
2024-03-09T06:00:27.664Z,31.24
2024-03-09T06:02:54.381Z,31.03
2024-03-09T06:05:21.216Z,31.93
2024-03-09T06:07:47.975Z,31.67
2024-03-09T06:10:16.730Z,32.39
2024-03-09T06:12:43.524Z,31.79
2024-03-09T06:15:10.713Z,32.02
2024-03-09T06:17:37.561Z,31.62
2024-03-09T06:20:05.079Z,31.73
2024-03-09T06:22:31.899Z,32.06
2024-03-09T06:24:58.651Z,32.56
2024-03-09T06:27:26.754Z,33.00
2024-03-09T06:29:53.487Z,32.84
2024-03-09T06:32:20.248Z,32.09
2024-03-09T06:34:47.163Z,32.62
2024-03-09T06:37:14.075Z,33.02
2024-03-09T06:39:40.928Z,33.05
2024-03-09T06:42:08.002Z,33.28
2024-03-09T06:44:36.068Z,32.72
2024-03-09T06:47:02.902Z,32.11
2024-03-09T06:49:29.737Z,32.52
2024-03-09T06:51:56.491Z,32.82
2024-03-09T06:54:23.193Z,33.23
2024-03-09T06:56:49.947Z,33.63
2024-03-09T06:59:16.698Z,33.41
2024-03-09T07:01:44.849Z,34.06
2024-03-09T07:04:11.569Z,33.42
2024-03-09T07:06:38.341Z,34.25
2024-03-09T07:09:05.069Z,34.06
2024-03-09T07:11:31.810Z,33.53
2024-03-09T07:13:58.664Z,33.21
2024-03-09T07:16:25.384Z,32.23
2024-03-09T07:18:53.517Z,32.36
2024-03-09T07:21:20.307Z,32.85
2024-03-09T07:23:47.009Z,32.77
2024-03-09T07:26:13.807Z,32.23
2024-03-09T07:28:40.706Z,32.64
2024-03-09T07:31:07.506Z,32.51
2024-03-09T07:33:34.349Z,32.71
2024-03-09T07:36:02.720Z,33.43
2024-03-09T07:38:29.562Z,35.65
2024-03-09T07:40:56.395Z,35.57
2024-03-09T07:43:23.144Z,35.73
2024-03-09T07:45:50.100Z,37.20
2024-03-09T07:48:16.966Z,35.99
2024-03-09T07:50:44.009Z,35.59
2024-03-09T07:53:12.316Z,34.47
2024-03-09T07:55:39.207Z,32.41
2024-03-09T07:58:14.408Z,32.26
2024-03-09T08:00:49.004Z,32.10
2024-03-09T08:03:15.949Z,31.48
2024-03-09T08:05:43.214Z,31.69
2024-03-09T08:08:10.429Z,32.15
2024-03-09T08:10:38.955Z,32.09
2024-03-09T08:13:05.805Z,30.79
2024-03-09T08:15:32.573Z,30.17
2024-03-09T08:17:59.483Z,29.70
2024-03-09T08:20:26.287Z,29.76
2024-03-09T08:22:53.077Z,29.04
2024-03-09T08:25:19.978Z,29.18
2024-03-09T08:27:48.448Z,30.61
2024-03-09T08:30:16.154Z,30.95
2024-03-09T08:32:43.698Z,33.81
2024-03-09T08:35:11.037Z,34.79
2024-03-09T08:37:38.240Z,34.50
2024-03-09T08:40:07.129Z,34.13
2024-03-09T08:42:34.088Z,34.56
2024-03-09T08:45:03.377Z,34.46
2024-03-09T08:47:30.310Z,34.12
2024-03-09T08:49:57.209Z,35.58
2024-03-09T08:52:24.024Z,36.46
2024-03-09T08:54:50.848Z,38.98
2024-03-09T08:57:17.594Z,40.16
2024-03-09T08:59:44.488Z,40.27
2024-03-09T09:02:12.618Z,39.49
2024-03-09T09:04:39.397Z,38.86
2024-03-09T09:07:06.143Z,37.41
2024-03-09T09:09:32.956Z,35.90
2024-03-09T09:11:59.868Z,35.36
2024-03-09T09:14:26.906Z,35.93
2024-03-09T09:16:53.646Z,35.96
2024-03-09T09:19:21.747Z,37.16
2024-03-09T09:21:48.717Z,40.25
2024-03-09T09:24:15.444Z,41.05
2024-03-09T09:26:42.175Z,42.19
2024-03-09T09:29:09.021Z,42.01
2024-03-09T09:31:36.117Z,41.38
2024-03-09T09:34:02.948Z,40.47
2024-03-09T09:36:31.088Z,39.04
2024-03-09T09:38:57.862Z,39.48
2024-03-09T09:41:24.696Z,39.19
2024-03-09T09:43:56.262Z,39.80
2024-03-09T09:46:23.077Z,40.27
2024-03-09T09:48:49.794Z,39.47
2024-03-09T09:51:16.668Z,38.14
2024-03-09T09:53:44.758Z,37.53
2024-03-09T09:56:11.527Z,36.87
2024-03-09T09:58:38.360Z,36.86
2024-03-09T10:01:05.268Z,36.62
2024-03-09T10:03:32.027Z,34.95
2024-03-09T10:05:58.778Z,35.21
2024-03-09T10:08:25.481Z,35.30
2024-03-09T10:10:53.709Z,34.71
2024-03-09T10:13:20.556Z,34.55
2024-03-09T10:15:47.982Z,34.00
2024-03-09T10:18:15.110Z,34.03
2024-03-09T10:20:41.878Z,33.24
2024-03-09T10:23:10.483Z,33.92
2024-03-09T10:25:37.859Z,33.62
2024-03-09T10:28:06.775Z,33.32
2024-03-09T10:30:33.644Z,34.08
2024-03-09T10:33:00.401Z,33.04
2024-03-09T10:35:27.336Z,33.44
2024-03-09T10:37:54.658Z,33.83
2024-03-09T10:40:21.400Z,33.89
2024-03-09T10:42:49.098Z,34.01
2024-03-09T10:45:17.923Z,32.74
2024-03-09T10:47:47.949Z,32.94
2024-03-09T10:50:15.291Z,32.45
2024-03-09T10:52:42.090Z,32.24
2024-03-09T10:55:10.561Z,31.02
2024-03-09T10:57:37.289Z,31.60
2024-03-09T11:00:04.624Z,31.84
2024-03-09T11:02:32.819Z,31.22
2024-03-09T11:04:59.703Z,31.54
2024-03-09T11:07:26.541Z,31.00
2024-03-09T11:09:53.332Z,29.76
2024-03-09T11:12:20.386Z,30.90
2024-03-09T11:14:50.491Z,30.69
2024-03-09T11:17:20.561Z,29.47
2024-03-09T11:19:50.946Z,29.05
2024-03-09T11:22:39.573Z,29.09
2024-03-09T11:25:08.146Z,30.41
2024-03-09T11:27:34.813Z,29.18
2024-03-09T11:30:01.586Z,28.51
2024-03-09T11:32:28.316Z,28.83
2024-03-09T11:35:30.283Z,27.66
2024-03-09T11:37:57.035Z,28.72
2024-03-09T11:40:23.976Z,28.18
2024-03-09T11:42:59.266Z,29.07
2024-03-09T11:45:27.204Z,30.20
2024-03-09T11:47:54.132Z,31.03
2024-03-09T11:50:21.001Z,30.52
2024-03-09T11:52:49.164Z,30.94
2024-03-09T11:55:16.177Z,30.96
2024-03-09T11:57:43.793Z,29.64
2024-03-09T12:00:11.182Z,30.38
2024-03-09T12:02:38.320Z,30.01
2024-03-09T12:05:09.819Z,31.00
2024-03-09T12:07:36.579Z,31.25
2024-03-09T12:10:05.929Z,31.21
2024-03-09T12:12:35.195Z,30.30
2024-03-09T12:15:01.984Z,30.81
2024-03-09T12:17:28.763Z,30.83
2024-03-09T12:19:55.501Z,30.56
2024-03-09T12:22:22.257Z,29.91
2024-03-09T12:24:49.018Z,30.24
2024-03-09T12:27:17.082Z,31.22
2024-03-09T12:29:43.839Z,31.02
2024-03-09T12:32:10.674Z,31.61
2024-03-09T12:34:38.466Z,31.42
2024-03-09T12:37:05.483Z,31.14
2024-03-09T12:39:32.326Z,31.51
2024-03-09T12:42:01.781Z,30.93
2024-03-09T12:44:35.069Z,30.82
2024-03-09T12:47:01.915Z,30.49
2024-03-09T12:49:28.675Z,31.03
2024-03-09T12:51:55.372Z,30.78
2024-03-09T12:54:22.197Z,31.38
2024-03-09T12:56:50.142Z,30.23
2024-03-09T12:59:18.180Z,30.56
2024-03-09T13:01:46.499Z,30.67
2024-03-09T13:04:13.964Z,30.99
2024-03-09T13:06:41.268Z,29.57
2024-03-09T13:09:08.543Z,30.25
2024-03-09T13:11:35.367Z,30.40
2024-03-09T13:14:02.224Z,29.28
2024-03-09T13:16:29.054Z,29.30
2024-03-09T13:18:57.145Z,30.07
2024-03-09T13:21:23.931Z,29.51
2024-03-09T13:23:50.663Z,29.23
2024-03-09T13:26:17.502Z,29.22
2024-03-09T13:28:44.283Z,30.15
2024-03-09T13:31:11.159Z,29.37
2024-03-09T13:33:37.959Z,28.56
2024-03-09T13:36:06.728Z,29.47
2024-03-09T13:38:33.452Z,28.69
2024-03-09T13:41:00.232Z,28.86
2024-03-09T13:43:26.992Z,29.68
2024-03-09T13:45:53.743Z,30.37
2024-03-09T13:48:20.490Z,30.49
2024-03-09T13:50:47.217Z,29.84
2024-03-09T13:53:15.412Z,30.28
2024-03-09T13:55:42.239Z,30.56
2024-03-09T13:58:09.043Z,29.86
2024-03-09T14:00:35.762Z,29.72
2024-03-09T14:03:02.634Z,29.52
2024-03-09T14:05:29.492Z,29.25
2024-03-09T14:07:56.789Z,28.78
2024-03-09T14:10:28.228Z,28.81
2024-03-09T14:12:55.232Z,29.13
2024-03-09T14:15:22.277Z,29.98
2024-03-09T14:17:49.860Z,28.56
2024-03-09T14:20:16.727Z,29.55
2024-03-09T14:22:43.588Z,29.93
2024-03-09T14:25:10.353Z,30.50
2024-03-09T14:27:38.428Z,30.34
2024-03-09T14:30:07.826Z,30.93
2024-03-09T14:32:34.682Z,30.75
2024-03-09T14:35:01.578Z,31.41
2024-03-09T14:37:30.092Z,32.31
2024-03-09T14:39:56.810Z,34.39
2024-03-09T14:42:23.618Z,33.92
2024-03-09T14:44:51.713Z,34.18
2024-03-09T14:47:18.569Z,32.41
2024-03-09T14:49:45.312Z,32.96
2024-03-09T14:52:12.149Z,34.29
2024-03-09T14:54:38.926Z,32.98
2024-03-09T14:57:05.659Z,32.77
2024-03-09T14:59:32.378Z,32.25
2024-03-09T15:02:00.421Z,31.41
2024-03-09T15:04:27.225Z,30.68
2024-03-09T15:06:53.954Z,30.69
2024-03-09T15:09:20.703Z,30.51
2024-03-09T15:11:47.823Z,29.81
2024-03-09T15:14:14.753Z,30.93
2024-03-09T15:16:41.594Z,30.77
2024-03-09T15:19:09.789Z,30.63
2024-03-09T15:21:36.535Z,31.08
2024-03-09T15:24:03.705Z,30.82
2024-03-09T15:26:31.273Z,29.90
2024-03-09T15:28:58.974Z,30.75
2024-03-09T15:31:26.225Z,30.27
2024-03-09T15:33:52.966Z,30.33
2024-03-09T15:36:21.064Z,30.61
2024-03-09T15:38:47.867Z,30.68
2024-03-09T15:41:15.351Z,29.85
2024-03-09T15:43:42.483Z,30.33
2024-03-09T15:46:09.327Z,29.96
2024-03-09T15:48:36.106Z,29.52
2024-03-09T15:51:03.177Z,29.30
2024-03-09T15:53:31.996Z,29.54
2024-03-09T15:55:58.771Z,29.61
2024-03-09T15:58:25.588Z,28.74
2024-03-09T16:00:52.459Z,29.32
2024-03-09T16:03:19.162Z,29.60
2024-03-09T16:05:45.956Z,29.01
2024-03-09T16:08:14.837Z,29.22
2024-03-09T16:10:44.066Z,29.22
2024-03-09T16:13:10.948Z,29.07
2024-03-09T16:15:37.676Z,28.42
2024-03-09T16:18:05.038Z,25.70
2024-03-09T16:20:32.487Z,24.99
2024-03-09T16:22:59.496Z,27.42
2024-03-09T16:25:27.131Z,25.86
2024-03-09T16:27:55.969Z,23.75
2024-03-09T16:30:22.705Z,22.40
2024-03-09T16:32:49.501Z,22.00
2024-03-09T16:35:16.545Z,21.67
2024-03-09T16:37:43.386Z,22.00
2024-03-09T16:40:10.921Z,21.52
2024-03-09T16:42:37.644Z,20.17
2024-03-09T16:45:06.869Z,18.17
2024-03-09T16:47:33.652Z,18.00
2024-03-09T16:50:00.506Z,17.86
2024-03-09T16:52:27.280Z,18.12
2024-03-09T16:54:54.013Z,18.63
2024-03-09T16:57:23.116Z,19.62
2024-03-09T16:59:50.462Z,18.99
2024-03-09T17:02:18.591Z,19.67
2024-03-09T17:04:45.400Z,20.18
2024-03-09T17:07:12.201Z,19.19
2024-03-09T17:09:38.964Z,20.08
2024-03-09T17:12:06.326Z,19.98
2024-03-09T17:14:33.257Z,19.31
2024-03-09T17:17:00.029Z,19.34
2024-03-09T17:19:28.317Z,19.37
2024-03-09T17:21:55.019Z,18.73
2024-03-09T17:24:21.782Z,19.27
2024-03-09T17:26:48.575Z,19.23
2024-03-09T17:29:15.408Z,18.09
2024-03-09T17:31:42.269Z,17.95
2024-03-09T17:34:09.082Z,18.71
2024-03-09T17:36:37.167Z,18.83
2024-03-09T17:39:04.115Z,20.92
2024-03-09T17:41:30.955Z,20.42
2024-03-09T17:43:57.859Z,19.42
2024-03-09T17:46:24.691Z,19.84
2024-03-09T17:48:51.543Z,19.29
2024-03-09T17:51:18.648Z,18.53
2024-03-09T17:53:46.884Z,17.19
2024-03-09T17:56:14.624Z,17.59
2024-03-09T17:58:42.991Z,18.25
2024-03-09T18:01:09.769Z,18.62
2024-03-09T18:03:36.504Z,19.12
2024-03-09T18:06:03.628Z,19.28
2024-03-09T18:08:30.434Z,18.44
2024-03-09T18:10:58.577Z,18.71
2024-03-09T18:13:25.382Z,18.55
2024-03-09T18:15:52.254Z,18.37
2024-03-09T18:18:19.072Z,18.32
2024-03-09T18:20:45.889Z,17.09
2024-03-09T18:23:13.416Z,18.48
2024-03-09T18:25:40.743Z,19.55
2024-03-09T18:28:09.577Z,19.66
2024-03-09T18:30:36.613Z,20.67
2024-03-09T18:33:03.991Z,21.16
2024-03-09T18:35:30.790Z,21.67
2024-03-09T18:37:57.594Z,22.16
2024-03-09T18:40:24.315Z,22.36
2024-03-09T18:42:51.025Z,21.86
2024-03-09T18:45:19.124Z,22.13
2024-03-09T18:47:45.869Z,21.40
2024-03-09T18:50:12.945Z,20.85
2024-03-09T18:52:39.776Z,20.44
2024-03-09T18:55:07.734Z,20.16
2024-03-09T18:57:34.585Z,19.99
2024-03-09T19:00:02.583Z,19.78
2024-03-09T19:02:31.753Z,20.26
2024-03-09T19:04:58.731Z,20.27
2024-03-09T19:07:25.610Z,19.77
2024-03-09T19:09:52.316Z,21.87
2024-03-09T19:12:19.093Z,24.48
2024-03-09T19:14:45.874Z,24.40
2024-03-09T19:17:12.747Z,23.38
2024-03-09T19:19:40.882Z,24.06
2024-03-09T19:22:07.621Z,25.33
2024-03-09T19:24:34.337Z,25.82
2024-03-09T19:27:01.089Z,28.41
2024-03-09T19:29:27.921Z,29.48
2024-03-09T19:31:54.707Z,30.80
2024-03-09T19:34:21.600Z,31.33
2024-03-09T19:36:49.694Z,24.90
2024-03-09T19:39:16.533Z,22.25
2024-03-09T19:41:43.367Z,21.24
2024-03-09T19:44:10.245Z,22.09
2024-03-09T19:46:37.063Z,22.06
2024-03-09T19:49:03.836Z,21.98
2024-03-09T19:51:30.869Z,22.43
2024-03-09T19:53:59.280Z,22.33
2024-03-09T19:56:26.168Z,22.65
2024-03-09T19:58:52.917Z,21.71
2024-03-09T20:01:19.633Z,22.59
2024-03-09T20:03:46.425Z,23.72
2024-03-09T20:06:13.202Z,22.52
2024-03-09T20:08:40.004Z,22.53
2024-03-09T20:11:08.183Z,23.37
2024-03-09T20:13:35.047Z,23.05
2024-03-09T20:16:01.809Z,22.52
2024-03-09T20:18:28.690Z,22.37
2024-03-09T20:20:55.595Z,22.46
2024-03-09T20:23:22.368Z,22.51
2024-03-09T20:25:49.313Z,21.45
2024-03-09T20:28:17.406Z,21.08
2024-03-09T20:30:44.135Z,21.52
2024-03-09T20:33:10.928Z,21.67
2024-03-09T20:35:37.798Z,21.80
2024-03-09T20:38:06.687Z,21.80
2024-03-09T20:40:35.520Z,21.88
2024-03-09T20:43:02.332Z,22.23
2024-03-09T20:45:30.457Z,21.81
2024-03-09T20:47:57.450Z,21.43
2024-03-09T20:50:24.518Z,21.80
2024-03-09T20:52:51.393Z,21.37
2024-03-09T20:55:18.363Z,21.25
2024-03-09T20:57:45.115Z,21.94
2024-03-09T21:00:12.844Z,22.70
2024-03-09T21:02:41.000Z,23.71
2024-03-09T21:05:08.640Z,23.56
2024-03-09T21:07:35.486Z,25.79
2024-03-09T21:10:02.230Z,27.25
2024-03-09T21:12:29.040Z,26.34
2024-03-09T21:14:55.773Z,25.05
2024-03-09T21:17:22.509Z,23.92
2024-03-09T21:19:50.717Z,23.40
2024-03-09T21:22:17.488Z,24.21
2024-03-09T21:24:44.270Z,24.70
2024-03-09T21:27:11.041Z,23.14
2024-03-09T21:29:37.921Z,24.32
2024-03-09T21:32:05.387Z,24.83
2024-03-09T21:34:32.175Z,26.07
2024-03-09T21:37:00.277Z,25.91
2024-03-09T21:39:30.196Z,27.20
2024-03-09T21:41:56.995Z,26.84
2024-03-09T21:44:23.748Z,26.70
2024-03-09T21:46:50.552Z,26.86
2024-03-09T21:49:17.264Z,27.24
2024-03-09T21:51:44.146Z,26.94
2024-03-09T21:54:12.436Z,29.26
2024-03-09T21:56:39.178Z,30.21
2024-03-09T21:59:05.971Z,33.12
2024-03-09T22:01:32.918Z,36.37
2024-03-09T22:03:59.843Z,35.61
2024-03-09T22:06:26.637Z,37.37
2024-03-09T22:08:53.606Z,36.19
2024-03-09T22:11:21.946Z,35.43
2024-03-09T22:13:48.766Z,33.11
2024-03-09T22:16:15.568Z,34.07
2024-03-09T22:18:42.362Z,33.23
2024-03-09T22:21:10.161Z,32.67
2024-03-09T22:23:36.958Z,32.78
2024-03-09T22:26:04.068Z,31.58
2024-03-09T22:28:32.170Z,30.23
2024-03-09T22:30:58.918Z,31.02
2024-03-09T22:33:25.600Z,31.00
2024-03-09T22:35:52.448Z,30.33
2024-03-09T22:38:19.244Z,29.97
2024-03-09T22:40:46.034Z,30.17
2024-03-09T22:43:12.939Z,28.52
2024-03-09T22:45:41.337Z,28.50
2024-03-09T22:48:08.352Z,29.14
2024-03-09T22:50:35.204Z,29.27
2024-03-09T22:53:01.980Z,30.30
2024-03-09T22:55:28.700Z,29.50
2024-03-09T22:57:55.414Z,27.40
2024-03-09T23:00:22.133Z,26.95
2024-03-09T23:02:50.222Z,27.12
2024-03-09T23:05:17.284Z,27.35
2024-03-09T23:07:44.063Z,27.60
2024-03-09T23:10:10.831Z,27.31
2024-03-09T23:12:37.542Z,26.84
2024-03-09T23:15:04.766Z,27.19
2024-03-09T23:17:31.815Z,26.73
2024-03-09T23:20:00.109Z,26.27
2024-03-09T23:22:26.843Z,25.55
2024-03-09T23:24:53.637Z,25.35
2024-03-09T23:27:20.420Z,25.49
2024-03-09T23:29:47.165Z,25.44
2024-03-09T23:32:13.946Z,25.28
2024-03-09T23:34:41.291Z,24.51
2024-03-09T23:37:09.436Z,25.32
2024-03-09T23:39:36.136Z,24.83
2024-03-09T23:42:02.898Z,25.23
2024-03-09T23:44:29.907Z,25.36
2024-03-09T23:46:56.740Z,26.01
2024-03-09T23:49:23.478Z,26.76
2024-03-09T23:51:50.193Z,26.50
2024-03-09T23:54:18.258Z,29.69
2024-03-09T23:56:44.969Z,29.74
2024-03-09T23:59:11.784Z,29.90
